Time;durP1;ratioP1;P1;durP2;ratioP2;P2;SDS_P1;SDS_P2;PMS_P1;PMS_P2;Temp;Humidity;BMP_temperature;BMP_pressure;BME280_temperature;BME280_humidity;BME280_pressure;Samples;Min_cycle;Max_cycle;Signal;HPM_P1;HPM_P2
2022/07/14 00:01:47;;;;;;;2.87;2.50;;;23.70;85.40;;;;;;5025730;28;20206;-68
2022/07/14 00:04:13;;;;;;;4.57;2.40;;;23.70;85.50;;;;;;5025477;28;20183;-68
2022/07/14 00:06:38;;;;;;;3.10;2.13;;;23.70;85.70;;;;;;5025977;28;20425;-68
2022/07/14 00:09:04;;;;;;;6.13;4.10;;;23.60;85.90;;;;;;5026307;28;20187;-68
2022/07/14 00:11:30;;;;;;;4.23;3.10;;;23.60;86.10;;;;;;5026258;28;20183;-67
2022/07/14 00:13:58;;;;;;;2.90;2.53;;;23.60;85.90;;;;;;5025288;28;20302;-69
2022/07/14 00:16:25;;;;;;;4.30;2.20;;;23.60;86.70;;;;;;5025711;28;20203;-69
2022/07/14 00:18:50;;;;;;;1.87;1.77;;;23.60;86.60;;;;;;5024933;28;20426;-68
2022/07/14 00:21:16;;;;;;;3.93;1.50;;;23.50;87.30;;;;;;5025473;28;20425;-68
2022/07/14 00:23:44;;;;;;;1.30;1.17;;;23.70;87.20;;;;;;5026007;28;20199;-68
2022/07/14 00:26:11;;;;;;;1.50;1.20;;;23.70;87.10;;;;;;5025689;28;20497;-69
2022/07/14 00:28:37;;;;;;;3.27;1.23;;;23.50;87.50;;;;;;5025722;28;20414;-68
2022/07/14 00:31:10;;;;;;;1.50;1.27;;;23.50;87.40;;;;;;5026145;28;20462;-68
2022/07/14 00:33:39;;;;;;;1.93;1.27;;;23.40;87.00;;;;;;5027060;28;20465;-68
2022/07/14 00:36:06;;;;;;;1.80;1.10;;;23.40;87.60;;;;;;5026482;28;20462;-68
2022/07/14 00:38:32;;;;;;;3.33;1.17;;;23.40;87.70;;;;;;5025320;28;20422;-68
2022/07/14 00:40:58;;;;;;;4.80;1.47;;;23.50;87.40;;;;;;5026019;28;20425;-68
2022/07/14 00:43:23;;;;;;;2.33;1.93;;;23.50;87.30;;;;;;5026430;28;20294;-69
2022/07/14 00:45:50;;;;;;;2.43;1.90;;;23.40;87.90;;;;;;5025234;28;20552;-69
2022/07/14 00:48:24;;;;;;;3.10;2.73;;;23.40;87.90;;;;;;5024889;28;20418;-69
2022/07/14 00:50:51;;;;;;;1.47;1.37;;;23.30;89.00;;;;;;5025151;28;20928;-69
2022/07/14 00:53:16;;;;;;;1.87;1.20;;;23.20;89.60;;;;;;5025011;28;20440;-69
2022/07/14 00:55:43;;;;;;;2.00;1.30;;;23.10;89.90;;;;;;5025311;28;20449;-69
2022/07/14 00:58:12;;;;;;;2.70;1.40;;;23.10;90.20;;;;;;5024160;28;20232;-70
2022/07/14 01:00:38;;;;;;;1.80;1.50;;;22.90;90.70;;;;;;5007082;28;20406;-67
2022/07/14 01:03:05;;;;;;;1.70;1.40;;;22.90;90.70;;;;;;5024996;28;20517;-67
2022/07/14 01:05:31;;;;;;;3.43;1.63;;;22.80;91.00;;;;;;5023988;28;20452;-68
2022/07/14 01:07:57;;;;;;;2.27;1.50;;;22.70;90.90;;;;;;5024929;28;20414;-69
2022/07/14 01:10:23;;;;;;;2.00;1.23;;;22.70;91.10;;;;;;5024740;28;20483;-68
2022/07/14 01:12:49;;;;;;;1.33;1.20;;;22.70;91.00;;;;;;5024349;28;20931;-68
2022/07/14 01:15:18;;;;;;;1.20;0.97;;;22.70;90.80;;;;;;5024927;28;20202;-68
2022/07/14 01:17:47;;;;;;;1.23;1.13;;;22.60;90.80;;;;;;5024709;28;20412;-69
2022/07/14 01:20:14;;;;;;;1.17;0.90;;;22.60;90.90;;;;;;5024663;28;20938;-69
2022/07/14 01:22:39;;;;;;;2.73;1.30;;;22.60;91.10;;;;;;5006687;28;20460;-68
2022/07/14 01:25:07;;;;;;;1.53;1.43;;;22.50;91.10;;;;;;5024495;28;20410;-68
2022/07/14 01:27:35;;;;;;;1.90;1.50;;;22.30;91.00;;;;;;5024093;28;20184;-66
2022/07/14 01:30:01;;;;;;;3.77;1.60;;;22.10;91.30;;;;;;5024699;28;20756;-68
2022/07/14 01:32:27;;;;;;;1.50;1.40;;;22.10;91.40;;;;;;5024277;28;20434;-68
2022/07/14 01:34:52;;;;;;;1.67;1.57;;;22.20;91.60;;;;;;5006618;28;20409;-68
2022/07/14 01:37:19;;;;;;;1.57;1.30;;;22.30;91.60;;;;;;5024619;28;20654;-67
2022/07/14 01:39:44;;;;;;;2.17;1.53;;;22.20;91.80;;;;;;5024730;28;20195;-67
2022/07/14 01:42:11;;;;;;;1.27;1.03;;;22.20;92.10;;;;;;5024134;28;20848;-67
2022/07/14 01:44:37;;;;;;;1.60;1.50;;;22.20;92.30;;;;;;5024200;28;20644;-67
2022/07/14 01:47:03;;;;;;;1.97;1.43;;;22.10;92.50;;;;;;5023929;28;20421;-68
2022/07/14 01:49:29;;;;;;;2.50;1.80;;;22.00;92.90;;;;;;5023810;28;20330;-68
2022/07/14 01:51:54;;;;;;;1.50;1.40;;;21.90;93.70;;;;;;5023789;28;20262;-67
2022/07/14 01:54:20;;;;;;;3.60;1.43;;;21.80;93.70;;;;;;5023886;28;20589;-69
2022/07/14 01:56:46;;;;;;;3.13;1.33;;;21.80;93.80;;;;;;5023534;28;20268;-67
2022/07/14 01:59:11;;;;;;;1.47;1.30;;;21.70;93.80;;;;;;5006404;28;20647;-68
2022/07/14 02:01:40;;;;;;;1.80;1.60;;;21.60;94.00;;;;;;5024333;28;20187;-67
2022/07/14 02:04:10;;;;;;;1.50;1.40;;;21.60;94.40;;;;;;5024305;28;20223;-67
2022/07/14 02:06:39;;;;;;;2.33;1.60;;;21.50;94.60;;;;;;5024212;28;20417;-68
2022/07/14 02:09:05;;;;;;;2.40;1.53;;;21.40;94.80;;;;;;5023763;28;20434;-67
2022/07/14 02:14:15;;;;;;;1.50;1.33;;;21.40;94.80;;;;;;5023457;28;20562;-68
2022/07/14 02:16:40;;;;;;;1.40;1.27;;;21.30;95.40;;;;;;5024111;28;20461;-67
2022/07/14 02:19:07;;;;;;;2.13;1.40;;;21.20;95.20;;;;;;5023688;28;20329;-67
2022/07/14 02:21:32;;;;;;;1.80;1.70;;;21.10;95.40;;;;;;5023312;28;20171;-67
2022/07/14 02:23:58;;;;;;;2.00;1.37;;;21.00;95.40;;;;;;5023465;28;20457;-68
2022/07/14 02:26:23;;;;;;;1.73;1.30;;;21.00;95.50;;;;;;5023273;28;20190;-68
2022/07/14 02:28:49;;;;;;;3.20;1.63;;;21.00;95.70;;;;;;5023407;28;20194;-68
2022/07/14 02:31:15;;;;;;;1.80;1.60;;;20.90;96.00;;;;;;5023534;28;20187;-67
2022/07/14 02:33:41;;;;;;;1.60;1.40;;;20.80;95.90;;;;;;5022562;28;20276;-68
2022/07/14 02:36:07;;;;;;;2.53;1.40;;;20.80;96.30;;;;;;5023062;28;20579;-68
2022/07/14 02:38:33;;;;;;;2.00;1.20;;;20.70;96.20;;;;;;5023542;28;20183;-67
2022/07/14 02:40:58;;;;;;;2.50;1.37;;;20.70;96.20;;;;;;5022881;28;20425;-68
2022/07/14 02:43:26;;;;;;;1.30;1.20;;;20.60;96.20;;;;;;5023423;28;20206;-68
2022/07/14 02:45:51;;;;;;;1.20;1.10;;;20.60;95.90;;;;;;5023488;28;20187;-68
2022/07/14 02:48:17;;;;;;;1.70;1.60;;;20.50;96.50;;;;;;5023239;28;20417;-68
2022/07/14 02:50:43;;;;;;;1.20;1.10;;;20.50;96.20;;;;;;5004138;28;20192;-67
2022/07/14 02:53:09;;;;;;;2.30;1.60;;;20.40;96.50;;;;;;5003478;28;20265;-67
2022/07/14 02:55:35;;;;;;;1.93;1.40;;;20.40;96.50;;;;;;5021533;28;20230;-68
2022/07/14 02:58:01;;;;;;;1.90;1.40;;;20.40;96.70;;;;;;5022762;28;20171;-68
2022/07/14 03:00:27;;;;;;;1.30;1.20;;;20.40;96.70;;;;;;5023200;28;20417;-67
2022/07/14 03:02:54;;;;;;;1.63;1.10;;;20.40;96.70;;;;;;5022924;28;20511;-67
2022/07/14 03:05:20;;;;;;;1.27;1.17;;;20.40;96.70;;;;;;5023719;28;20414;-68
2022/07/14 03:07:45;;;;;;;1.50;1.30;;;20.50;96.80;;;;;;5023205;28;20414;-68
2022/07/14 03:10:11;;;;;;;1.40;1.30;;;20.40;96.90;;;;;;5023268;28;20727;-68
2022/07/14 03:12:37;;;;;;;1.27;1.10;;;20.40;96.80;;;;;;5022652;28;20325;-68
2022/07/14 03:15:03;;;;;;;3.40;1.30;;;20.40;96.80;;;;;;5023096;28;20186;-68
2022/07/14 03:17:29;;;;;;;1.77;1.40;;;20.30;96.50;;;;;;5009089;28;20176;-68
2022/07/14 03:19:55;;;;;;;1.43;1.13;;;20.20;96.70;;;;;;5009509;28;20422;-68
2022/07/14 03:22:20;;;;;;;2.83;1.17;;;20.20;96.90;;;;;;5026676;28;20286;-68
2022/07/14 03:24:46;;;;;;;2.13;1.30;;;20.10;96.80;;;;;;5026826;28;20221;-69
2022/07/14 03:27:12;;;;;;;2.37;1.30;;;20.10;96.90;;;;;;5026665;28;20270;-69
2022/07/14 03:29:41;;;;;;;2.80;1.30;;;20.10;96.70;;;;;;5026752;28;20187;-68
2022/07/14 03:32:07;;;;;;;3.07;1.40;;;20.10;96.80;;;;;;5026562;28;20569;-67
2022/07/14 03:34:33;;;;;;;2.33;1.50;;;20.10;96.90;;;;;;5026699;28;20420;-68
2022/07/14 03:36:59;;;;;;;3.43;1.30;;;20.20;96.80;;;;;;5026692;28;20237;-68
2022/07/14 03:39:25;;;;;;;1.10;1.00;;;20.20;96.80;;;;;;5027092;28;20211;-67
2022/07/14 03:41:51;;;;;;;1.90;1.60;;;20.10;96.70;;;;;;5026583;28;20444;-69
2022/07/14 03:44:17;;;;;;;1.33;1.23;;;20.20;97.10;;;;;;5026344;28;20907;-69
2022/07/14 03:46:42;;;;;;;1.90;1.43;;;20.20;97.10;;;;;;5026519;28;20183;-70
2022/07/14 03:49:08;;;;;;;2.17;1.23;;;20.20;97.30;;;;;;5026359;28;20187;-70
2022/07/14 03:51:34;;;;;;;2.70;1.20;;;20.20;97.50;;;;;;5027011;28;20207;-70
2022/07/14 03:54:00;;;;;;;1.20;1.10;;;20.20;97.50;;;;;;5026424;28;20437;-69
2022/07/14 03:56:25;;;;;;;1.40;1.30;;;20.20;97.60;;;;;;5025954;28;20460;-70
2022/07/14 03:58:51;;;;;;;7.13;1.60;;;20.20;97.40;;;;;;5024755;28;20233;-67
2022/07/14 04:01:17;;;;;;;1.80;1.10;;;20.10;97.60;;;;;;5026577;28;20214;-71
2022/07/14 04:03:43;;;;;;;1.93;1.37;;;20.10;98.00;;;;;;5025819;28;20270;-68
2022/07/14 04:06:08;;;;;;;1.63;1.53;;;20.00;98.20;;;;;;5026309;28;21000;-67
2022/07/14 04:08:34;;;;;;;2.80;1.30;;;20.10;98.30;;;;;;5026128;28;20410;-69
2022/07/14 04:10:59;;;;;;;2.10;1.37;;;20.00;98.40;;;;;;5025151;28;20258;-70
2022/07/14 04:13:26;;;;;;;1.50;1.17;;;20.10;98.80;;;;;;5025769;28;20696;-68
2022/07/14 04:15:51;;;;;;;1.87;1.40;;;20.10;98.70;;;;;;5025847;28;20522;-66
2022/07/14 04:18:17;;;;;;;1.47;1.37;;;20.10;98.80;;;;;;5025752;28;20487;-68
2022/07/14 04:20:50;;;;;;;1.93;1.23;;;20.10;98.90;;;;;;5026128;28;20179;-70
2022/07/14 04:23:16;;;;;;;3.20;1.40;;;20.00;99.10;;;;;;5026080;28;20195;-68
2022/07/14 04:25:42;;;;;;;3.43;1.50;;;20.00;99.30;;;;;;5025390;28;20437;-68
2022/07/14 04:28:08;;;;;;;2.40;1.60;;;20.00;99.70;;;;;;5025930;28;20414;-67
2022/07/14 04:30:33;;;;;;;3.57;1.70;;;20.00;99.90;;;;;;5025762;28;20229;-67
2022/07/14 04:32:59;;;;;;;1.57;1.43;;;20.00;99.90;;;;;;5024260;28;20207;-69
2022/07/14 04:35:24;;;;;;;1.90;1.50;;;20.00;99.90;;;;;;5025050;28;20199;-66
2022/07/14 04:37:50;;;;;;;3.60;1.60;;;20.00;99.90;;;;;;5024908;28;20176;-68
2022/07/14 04:40:16;;;;;;;3.00;1.57;;;20.10;99.90;;;;;;5024671;28;20182;-69
2022/07/14 04:42:41;;;;;;;1.60;1.50;;;20.20;99.90;;;;;;5024905;28;20226;-70
2022/07/14 04:45:08;;;;;;;2.37;1.37;;;20.10;99.90;;;;;;5025261;28;20286;-68
2022/07/14 04:47:33;;;;;;;1.47;1.20;;;20.10;99.90;;;;;;5025099;28;20175;-69
2022/07/14 04:52:48;;;;;;;1.70;1.30;;;20.10;99.90;;;;;;5024964;28;20230;-68
2022/07/14 04:55:15;;;;;;;1.20;1.10;;;20.10;99.90;;;;;;5024599;28;20938;-68
2022/07/14 04:57:40;;;;;;;1.37;1.20;;;20.20;99.90;;;;;;5024382;28;20418;-67
2022/07/14 05:00:08;;;;;;;1.30;1.20;;;20.30;99.90;;;;;;5024579;28;20441;-68
2022/07/14 05:02:33;;;;;;;2.57;1.37;;;20.40;99.90;;;;;;5024511;28;20211;-68
2022/07/14 05:04:59;;;;;;;1.90;1.20;;;20.50;99.90;;;;;;5024855;28;20414;-67
2022/07/14 05:07:24;;;;;;;2.80;1.83;;;20.50;99.90;;;;;;5024801;28;20241;-67
2022/07/14 05:09:50;;;;;;;3.20;1.40;;;20.40;99.90;;;;;;5024742;28;20290;-68
2022/07/14 05:12:17;;;;;;;2.83;1.90;;;20.50;99.90;;;;;;5024507;28;20215;-68
2022/07/14 05:14:43;;;;;;;1.83;1.50;;;20.50;99.90;;;;;;5049771;22;20227;-70
2022/07/14 05:17:09;;;;;;;1.83;1.63;;;20.70;99.90;;;;;;5024731;28;20449;-70
2022/07/14 05:19:34;;;;;;;1.73;1.63;;;20.70;99.90;;;;;;5024852;28;20187;-69
2022/07/14 05:22:00;;;;;;;2.50;1.60;;;20.90;99.90;;;;;;5024693;28;20186;-70
2022/07/14 05:24:26;;;;;;;2.50;1.43;;;21.10;99.90;;;;;;5025041;28;20309;-69
2022/07/14 05:26:51;;;;;;;2.10;1.77;;;21.20;99.50;;;;;;5025054;28;20691;-71
2022/07/14 05:29:17;;;;;;;2.23;1.80;;;21.40;99.60;;;;;;5024132;28;20313;-69
2022/07/14 05:31:42;;;;;;;1.83;1.40;;;21.50;99.30;;;;;;5024882;28;20180;-71
2022/07/14 05:34:08;;;;;;;1.93;1.70;;;21.70;99.00;;;;;;5006510;28;20209;-70
2022/07/14 05:36:35;;;;;;;2.80;1.70;;;21.80;98.70;;;;;;5024962;28;20210;-70
2022/07/14 05:39:01;;;;;;;2.67;1.47;;;22.00;98.50;;;;;;5024757;28;20402;-69
2022/07/14 05:41:26;;;;;;;1.70;1.60;;;22.10;98.30;;;;;;5024776;28;20456;-69
2022/07/14 05:43:52;;;;;;;1.67;1.57;;;22.10;98.00;;;;;;5023997;28;20824;-70
2022/07/14 05:46:18;;;;;;;2.37;1.30;;;22.20;98.40;;;;;;5024370;28;20232;-70
2022/07/14 05:48:44;;;;;;;4.37;1.90;;;22.30;98.40;;;;;;5024521;28;20175;-69
2022/07/14 05:51:15;;;;;;;2.57;1.63;;;22.50;98.30;;;;;;5024527;28;20825;-70
2022/07/14 05:53:42;;;;;;;5.10;1.77;;;22.60;98.30;;;;;;5024396;28;21043;-69
2022/07/14 05:56:10;;;;;;;2.07;1.80;;;22.70;97.90;;;;;;5013710;28;20461;-70
2022/07/14 05:58:36;;;;;;;2.00;1.80;;;22.90;98.10;;;;;;5024375;28;20787;-69
2022/07/14 06:01:03;;;;;;;1.80;1.70;;;23.10;97.80;;;;;;5023776;28;20417;-70
2022/07/14 06:03:29;;;;;;;4.00;2.50;;;23.20;97.10;;;;;;5024318;28;20406;-70
2022/07/14 06:05:57;;;;;;;2.83;1.60;;;23.40;97.50;;;;;;5024110;28;20525;-70
2022/07/14 06:08:23;;;;;;;2.63;1.90;;;23.50;97.50;;;;;;5023917;28;20441;-70
2022/07/14 06:10:48;;;;;;;2.80;1.90;;;23.70;97.10;;;;;;5024016;28;20418;-70
2022/07/14 06:13:14;;;;;;;4.87;2.20;;;23.80;97.10;;;;;;5018662;28;20693;-70
2022/07/14 06:15:40;;;;;;;5.00;2.53;;;24.00;96.90;;;;;;5023425;28;20227;-70
2022/07/14 06:18:05;;;;;;;3.03;2.60;;;24.20;96.60;;;;;;5022620;28;20254;-70
2022/07/14 06:20:31;;;;;;;5.10;2.13;;;24.30;96.20;;;;;;5024079;28;20175;-69
2022/07/14 06:22:56;;;;;;;2.03;1.83;;;24.50;95.50;;;;;;5024079;28;20242;-70
2022/07/14 06:25:22;;;;;;;1.60;1.50;;;24.60;94.50;;;;;;5022441;28;20743;-70
2022/07/14 06:27:48;;;;;;;3.27;1.73;;;24.80;94.60;;;;;;5023806;28;20186;-70
2022/07/14 06:30:13;;;;;;;3.83;1.80;;;25.00;94.60;;;;;;5023716;28;20556;-71
2022/07/14 06:32:40;;;;;;;3.17;2.00;;;25.20;94.60;;;;;;5024307;28;20179;-70
2022/07/14 06:35:07;;;;;;;2.23;1.53;;;25.30;94.70;;;;;;5022592;28;20668;-70
2022/07/14 06:37:34;;;;;;;2.40;1.57;;;25.40;94.80;;;;;;5023920;28;20508;-69
2022/07/14 06:40:04;;;;;;;2.93;1.90;;;25.30;94.60;;;;;;5023932;28;20999;-70
2022/07/14 06:42:29;;;;;;;6.07;2.10;;;25.40;94.50;;;;;;5023673;28;20422;-70
2022/07/14 06:44:55;;;;;;;2.50;1.63;;;25.50;94.00;;;;;;5023570;28;20425;-71
2022/07/14 06:47:20;;;;;;;2.60;1.70;;;25.60;93.80;;;;;;5013590;28;20222;-70
2022/07/14 06:49:46;;;;;;;2.73;1.50;;;25.70;93.70;;;;;;5023545;28;20286;-70
2022/07/14 06:52:12;;;;;;;1.60;1.30;;;25.90;93.70;;;;;;5022726;28;20183;-70
2022/07/14 06:54:38;;;;;;;2.60;1.60;;;26.10;93.90;;;;;;5023418;28;20685;-71
2022/07/14 06:57:04;;;;;;;2.00;1.80;;;26.30;93.80;;;;;;5027376;28;20544;-70
2022/07/14 06:59:29;;;;;;;3.40;2.00;;;26.40;93.50;;;;;;5027495;28;20785;-70
2022/07/14 07:01:55;;;;;;;4.23;2.10;;;26.50;92.70;;;;;;5028004;28;20183;-70
2022/07/14 07:04:21;;;;;;;3.03;1.97;;;26.60;92.00;;;;;;5027794;28;20221;-70
2022/07/14 07:06:46;;;;;;;4.67;2.23;;;26.70;91.20;;;;;;5027416;28;20233;-71
2022/07/14 07:09:14;;;;;;;4.80;2.00;;;26.80;90.50;;;;;;5027816;28;20183;-70
2022/07/14 07:11:41;;;;;;;6.13;2.00;;;26.90;90.10;;;;;;5027495;28;20183;-70
2022/07/14 07:14:07;;;;;;;3.63;2.50;;;27.00;90.30;;;;;;5027209;28;20503;-70
2022/07/14 07:16:33;;;;;;;4.90;1.93;;;27.10;90.00;;;;;;5027212;28;20453;-71
2022/07/14 07:18:58;;;;;;;4.33;2.23;;;27.30;90.20;;;;;;5025837;28;20437;-69
2022/07/14 07:21:24;;;;;;;4.43;2.30;;;27.40;90.80;;;;;;5027710;28;20178;-71
2022/07/14 07:23:50;;;;;;;6.13;2.30;;;27.30;88.50;;;;;;5027380;28;20175;-70
2022/07/14 07:26:16;;;;;;;3.37;2.27;;;27.30;90.30;;;;;;5027436;28;20190;-71
2022/07/14 07:28:43;;;;;;;4.27;2.40;;;27.10;89.10;;;;;;5025781;28;20477;-72
2022/07/14 07:31:09;;;;;;;5.00;2.80;;;26.70;90.10;;;;;;5026992;28;20872;-70
2022/07/14 07:33:35;;;;;;;3.33;2.50;;;26.80;90.30;;;;;;5026479;28;20406;-71
2022/07/14 07:36:01;;;;;;;3.87;2.83;;;26.90;90.60;;;;;;5026664;28;20473;-72
2022/07/14 07:38:27;;;;;;;4.53;2.83;;;27.00;91.00;;;;;;5027182;28;20233;-71
2022/07/14 07:40:53;;;;;;;4.40;2.60;;;27.20;91.60;;;;;;5026918;28;20172;-72
2022/07/14 07:43:22;;;;;;;4.50;2.70;;;27.50;92.20;;;;;;5026976;28;20410;-72
2022/07/14 07:45:49;;;;;;;3.73;2.60;;;27.60;91.50;;;;;;5027041;28;20949;-72
2022/07/14 07:48:14;;;;;;;4.40;2.23;;;27.80;91.00;;;;;;5026249;28;20965;-72
2022/07/14 07:50:42;;;;;;;4.30;2.87;;;28.10;90.10;;;;;;5026735;28;20414;-72
2022/07/14 07:53:08;;;;;;;4.13;2.50;;;28.10;90.40;;;;;;5026870;28;20282;-72
2022/07/14 07:55:34;;;;;;;3.90;2.90;;;28.00;88.70;;;;;;5026159;28;20595;-70
2022/07/14 07:58:00;;;;;;;3.87;2.37;;;28.30;91.20;;;;;;5026381;28;20270;-72
2022/07/14 08:00:26;;;;;;;2.50;1.60;;;28.60;89.10;;;;;;5026330;28;21041;-71
2022/07/14 08:02:53;;;;;;;5.37;2.70;;;28.90;84.20;;;;;;5026396;28;20278;-70
2022/07/14 08:05:26;;;;;;;3.70;2.30;;;28.90;83.10;;;;;;5025776;28;20934;-71
2022/07/14 08:07:52;;;;;;;4.10;2.00;;;28.80;83.40;;;;;;5026032;28;20406;-71
2022/07/14 08:10:18;;;;;;;3.73;2.13;;;28.80;76.90;;;;;;5024993;28;20421;-71
2022/07/14 08:12:44;;;;;;;5.20;2.00;;;28.80;79.20;;;;;;5026288;28;20420;-71
2022/07/14 08:15:11;;;;;;;2.33;2.13;;;28.90;74.00;;;;;;5026067;28;20465;-70
2022/07/14 08:17:36;;;;;;;2.40;1.87;;;29.00;75.80;;;;;;5025630;28;20171;-71
2022/07/14 08:20:03;;;;;;;3.20;2.30;;;29.10;73.00;;;;;;5026384;28;20414;-70
2022/07/14 08:22:29;;;;;;;5.97;1.90;;;29.10;71.00;;;;;;5025269;28;20174;-72
2022/07/14 08:24:56;;;;;;;2.73;1.93;;;29.30;69.30;;;;;;5025974;28;20426;-71
2022/07/14 08:27:22;;;;;;;3.20;2.20;;;29.40;69.20;;;;;;5026425;28;20422;-72
2022/07/14 08:29:48;;;;;;;4.20;2.40;;;29.40;71.00;;;;;;5025874;28;20418;-71
2022/07/14 08:32:14;;;;;;;7.60;2.50;;;29.40;71.40;;;;;;5022779;28;21438;-71
2022/07/14 08:34:40;;;;;;;4.90;2.10;;;29.40;71.40;;;;;;5025716;28;20438;-71
2022/07/14 08:37:06;;;;;;;3.13;1.97;;;29.70;68.90;;;;;;5026418;28;20202;-72
2022/07/14 08:39:32;;;;;;;2.90;1.67;;;29.60;68.60;;;;;;5025761;28;20426;-72
2022/07/14 08:42:00;;;;;;;2.50;1.70;;;29.60;65.20;;;;;;5025937;28;20533;-72
2022/07/14 08:44:26;;;;;;;6.87;2.40;;;29.60;67.40;;;;;;5025438;28;20291;-72
2022/07/14 08:46:53;;;;;;;4.40;2.40;;;29.50;67.10;;;;;;5025553;28;20410;-72
2022/07/14 08:49:19;;;;;;;2.40;1.80;;;29.70;66.50;;;;;;5025670;28;20448;-72
2022/07/14 08:51:46;;;;;;;3.10;1.90;;;29.80;63.60;;;;;;5025523;28;20438;-71
2022/07/14 08:54:11;;;;;;;1.70;1.60;;;29.60;62.30;;;;;;5025225;28;20438;-72
2022/07/14 08:56:38;;;;;;;1.53;1.40;;;29.70;62.60;;;;;;5025776;28;20511;-72
2022/07/14 08:59:04;;;;;;;2.23;1.70;;;29.60;63.20;;;;;;5026090;28;20267;-70
2022/07/14 09:01:30;;;;;;;3.40;1.80;;;29.80;62.20;;;;;;5025430;28;20505;-72
2022/07/14 09:03:56;;;;;;;2.10;1.87;;;29.80;62.10;;;;;;5026823;28;21242;-71
2022/07/14 09:06:44;;;;;;;2.90;2.13;;;29.80;60.90;;;;;;5025637;28;20257;-72
2022/07/14 09:09:09;;;;;;;2.10;1.53;;;29.90;60.30;;;;;;5027984;28;20542;-71
2022/07/14 09:11:35;;;;;;;2.43;1.70;;;30.00;59.50;;;;;;5026588;28;20413;-71
2022/07/14 09:14:10;;;;;;;2.20;1.27;;;30.00;60.30;;;;;;5026666;28;21156;-71
2022/07/14 09:16:36;;;;;;;2.50;1.67;;;30.20;59.50;;;;;;5025166;28;20197;-71
2022/07/14 09:19:07;;;;;;;3.37;1.60;;;30.30;59.00;;;;;;5024103;28;20503;-70
2022/07/14 09:21:33;;;;;;;2.87;1.60;;;30.40;58.10;;;;;;5024726;28;20226;-73
2022/07/14 09:23:59;;;;;;;3.20;1.53;;;30.30;58.50;;;;;;5024138;28;20512;-72
2022/07/14 09:26:25;;;;;;;5.30;1.77;;;30.40;57.90;;;;;;5024877;28;20457;-71
2022/07/14 09:28:52;;;;;;;3.90;1.53;;;30.50;59.10;;;;;;5024795;28;20233;-70
2022/07/14 09:31:31;;;;;;;3.23;1.90;;;30.60;59.90;;;;;;5024752;28;21069;-71
2022/07/14 09:33:58;;;;;;;1.70;1.43;;;31.00;57.40;;;;;;5024880;28;20478;-71
2022/07/14 09:36:29;;;;;;;1.97;1.60;;;31.30;55.50;;;;;;5024833;28;20914;-71
2022/07/14 09:39:05;;;;;;;2.63;1.60;;;31.50;55.50;;;;;;5024637;28;20441;-71
2022/07/14 09:41:53;;;;;;;2.60;1.63;;;31.50;55.40;;;;;;5024763;28;20424;-71
2022/07/14 09:44:20;;;;;;;2.43;1.60;;;31.70;55.20;;;;;;5024164;28;20445;-69
2022/07/14 09:46:56;;;;;;;3.47;1.80;;;31.90;55.10;;;;;;5024849;28;20520;-71
2022/07/14 09:49:24;;;;;;;2.83;2.07;;;32.10;54.10;;;;;;5024304;28;20494;-70
2022/07/14 09:52:06;;;;;;;2.93;1.47;;;32.10;54.00;;;;;;5024203;28;20406;-72
2022/07/14 09:54:37;;;;;;;6.20;1.77;;;32.20;54.10;;;;;;5024221;28;20448;-72
2022/07/14 09:57:08;;;;;;;1.97;1.67;;;32.20;52.70;;;;;;5024294;28;20458;-72
2022/07/14 09:59:43;;;;;;;3.43;1.90;;;32.20;52.00;;;;;;5006728;28;21238;-71
2022/07/14 10:02:14;;;;;;;4.80;1.40;;;32.20;51.70;;;;;;5023830;28;20708;-71
2022/07/14 10:04:41;;;;;;;1.90;1.53;;;32.40;50.10;;;;;;5023777;28;20763;-71
2022/07/14 10:07:07;;;;;;;1.63;1.53;;;32.60;51.90;;;;;;5023787;28;20410;-71
2022/07/14 10:09:37;;;;;;;3.80;1.50;;;32.80;50.50;;;;;;5023996;28;20452;-71
2022/07/14 10:12:03;;;;;;;1.93;1.83;;;32.50;49.50;;;;;;5024071;28;20225;-71
2022/07/14 10:14:30;;;;;;;3.03;1.50;;;32.30;50.30;;;;;;5023940;28;20829;-71
2022/07/14 10:16:58;;;;;;;2.20;1.77;;;32.30;50.90;;;;;;5023898;28;20560;-71
2022/07/14 10:19:25;;;;;;;1.70;1.57;;;32.40;50.60;;;;;;5024271;28;20501;-71
2022/07/14 10:21:54;;;;;;;1.80;1.70;;;32.10;49.90;;;;;;5024191;28;20882;-70
2022/07/14 10:24:21;;;;;;;3.00;1.60;;;32.20;52.10;;;;;;5022980;28;20480;-71
2022/07/14 10:26:47;;;;;;;1.70;1.50;;;32.20;49.70;;;;;;5023931;28;20952;-72
2022/07/14 10:29:13;;;;;;;4.07;2.20;;;32.20;50.00;;;;;;5022223;28;20978;-72
2022/07/14 10:32:03;;;;;;;2.93;1.87;;;32.50;49.20;;;;;;5024254;28;20603;-70
2022/07/14 10:34:38;;;;;;;1.93;1.40;;;32.80;48.70;;;;;;5023886;28;20441;-72
2022/07/14 10:37:26;;;;;;;1.60;1.27;;;32.80;49.00;;;;;;5022877;28;20446;-70
2022/07/14 10:40:08;;;;;;;2.97;2.00;;;32.90;47.10;;;;;;5024028;28;20407;-71
2022/07/14 10:42:52;;;;;;;2.30;1.57;;;33.10;47.90;;;;;;5026978;28;20414;-71
2022/07/14 10:45:18;;;;;;;1.83;1.67;;;33.10;47.10;;;;;;5023553;28;20426;-71
2022/07/14 10:47:50;;;;;;;2.60;1.67;;;33.40;47.10;;;;;;5023919;28;20410;-71
2022/07/14 10:50:23;;;;;;;2.73;1.80;;;33.40;46.30;;;;;;5023447;28;20410;-71
2022/07/14 10:52:55;;;;;;;1.77;1.53;;;33.30;47.00;;;;;;5023941;28;20406;-71
2022/07/14 10:55:32;;;;;;;1.53;1.40;;;33.70;46.90;;;;;;5023377;28;20439;-71
2022/07/14 10:58:04;;;;;;;2.60;1.37;;;33.90;45.40;;;;;;5023990;28;20433;-71
2022/07/14 11:00:57;;;;;;;1.87;1.77;;;33.70;46.20;;;;;;5024036;28;20402;-72
2022/07/14 11:03:33;;;;;;;1.70;1.60;;;34.00;46.70;;;;;;5021366;28;20426;-71
2022/07/14 11:06:03;;;;;;;3.57;1.87;;;33.90;44.10;;;;;;5023589;28;20468;-71
2022/07/14 11:08:29;;;;;;;1.80;1.70;;;33.90;45.20;;;;;;5022803;28;20418;-71
2022/07/14 11:10:56;;;;;;;1.83;1.40;;;34.00;45.70;;;;;;5023163;28;20432;-72
2022/07/14 11:13:23;;;;;;;2.67;1.77;;;34.10;43.50;;;;;;5023276;28;20430;-71
2022/07/14 11:16:03;;;;;;;2.20;1.43;;;33.90;45.30;;;;;;5023400;28;20481;-71
2022/07/14 11:18:41;;;;;;;1.97;1.20;;;34.10;43.90;;;;;;5022230;28;20406;-71
2022/07/14 11:21:17;;;;;;;5.60;2.23;;;34.30;43.90;;;;;;5023563;28;20425;-72
2022/07/14 11:23:46;;;;;;;3.10;2.03;;;34.50;43.20;;;;;;5022499;28;20449;-71
2022/07/14 11:26:47;;;;;;;2.80;1.63;;;34.30;43.70;;;;;;5023762;28;20414;-71
2022/07/14 11:29:13;;;;;;;2.90;1.50;;;34.50;45.10;;;;;;5023642;28;20394;-71
2022/07/14 11:31:49;;;;;;;2.80;1.63;;;34.80;43.50;;;;;;5023338;28;20500;-71
2022/07/14 11:37:09;;;;;;;2.37;1.70;;;36.40;42.10;;;;;;5023497;28;20452;-72
2022/07/14 11:39:37;;;;;;;7.27;1.97;;;38.40;38.00;;;;;;5023547;28;20410;-71
2022/07/14 11:42:03;;;;;;;3.63;1.40;;;39.30;37.60;;;;;;5024909;28;20409;-72
2022/07/14 11:44:51;;;;;;;5.30;2.00;;;38.90;37.10;;;;;;5026670;28;20445;-71
2022/07/14 11:47:28;;;;;;;3.10;1.60;;;39.00;37.80;;;;;;5019587;28;20407;-71
2022/07/14 11:49:59;;;;;;;3.40;1.53;;;38.90;38.40;;;;;;5026524;28;20405;-71
2022/07/14 11:52:37;;;;;;;2.37;1.77;;;39.80;36.50;;;;;;5026663;28;20401;-71
2022/07/14 11:55:05;;;;;;;3.50;1.70;;;40.50;35.80;;;;;;5026299;28;20490;-72
2022/07/14 11:57:31;;;;;;;2.70;1.50;;;39.80;36.50;;;;;;5026058;28;20449;-71
2022/07/14 12:00:08;;;;;;;2.83;1.70;;;39.20;36.40;;;;;;5026903;28;20405;-71
2022/07/14 12:02:58;;;;;;;3.90;1.47;;;38.30;37.50;;;;;;5025887;28;20171;-72
2022/07/14 12:05:27;;;;;;;3.27;1.50;;;39.00;37.10;;;;;;5025897;28;20441;-71
2022/07/14 12:07:54;;;;;;;3.83;1.63;;;39.30;35.60;;;;;;5026507;28;20456;-71
2022/07/14 12:10:38;;;;;;;2.97;1.60;;;40.00;35.80;;;;;;5025403;28;20421;-71
2022/07/14 12:13:04;;;;;;;2.50;1.80;;;38.00;38.20;;;;;;5026771;28;20820;-71
2022/07/14 12:15:30;;;;;;;3.73;1.90;;;37.60;39.40;;;;;;5025657;28;20450;-70
2022/07/14 12:17:56;;;;;;;4.73;1.73;;;38.40;38.40;;;;;;5026329;28;20172;-71
2022/07/14 12:20:22;;;;;;;6.87;2.00;;;38.10;38.10;;;;;;5026029;28;20417;-71
2022/07/14 12:22:56;;;;;;;4.07;1.80;;;37.90;38.40;;;;;;5025990;28;20179;-71
2022/07/14 12:25:32;;;;;;;6.13;2.10;;;37.00;39.10;;;;;;5025909;28;20470;-71
2022/07/14 12:28:03;;;;;;;4.13;1.70;;;36.70;39.10;;;;;;5026183;28;20410;-72
2022/07/14 12:30:45;;;;;;;2.33;1.73;;;36.70;39.40;;;;;;5025689;28;20986;-71
2022/07/14 12:33:13;;;;;;;1.80;1.63;;;38.10;38.20;;;;;;5026074;28;20456;-71
2022/07/14 12:35:44;;;;;;;4.63;1.93;;;38.90;37.10;;;;;;5025814;28;20484;-70
2022/07/14 12:38:11;;;;;;;4.60;1.67;;;38.20;37.00;;;;;;5024846;28;20473;-70
2022/07/14 12:40:37;;;;;;;4.33;1.80;;;37.40;37.70;;;;;;5025746;28;20448;-71
2022/07/14 12:43:04;;;;;;;1.90;1.60;;;37.10;38.60;;;;;;5025545;28;20420;-71
2022/07/14 12:45:30;;;;;;;3.00;1.50;;;37.20;37.20;;;;;;5024654;28;20810;-71
2022/07/14 12:48:00;;;;;;;3.43;1.60;;;36.60;38.10;;;;;;5025624;28;20476;-72
2022/07/14 12:50:28;;;;;;;3.37;1.63;;;36.70;38.00;;;;;;5025558;28;20410;-71
2022/07/14 12:52:56;;;;;;;3.73;1.70;;;36.50;37.80;;;;;;5023810;28;20418;-71
2022/07/14 12:55:48;;;;;;;8.40;2.23;;;36.30;37.90;;;;;;5025173;28;20862;-70
2022/07/14 12:58:14;;;;;;;2.40;1.63;;;35.70;38.20;;;;;;5025646;28;20489;-72
2022/07/14 13:00:45;;;;;;;5.70;1.47;;;35.50;38.50;;;;;;5024878;28;20500;-71